createdAt,value
2022-11-21T00:01:28.388Z,98102.22
2022-11-21T00:03:55.561Z,98111.59
2022-11-21T00:06:23.754Z,98117.56
2022-11-21T00:11:43.079Z,98113.91
2022-11-21T00:14:10.365Z,98109.84
2022-11-21T00:16:37.580Z,98101.16
2022-11-21T00:19:05.821Z,98109.97
2022-11-21T00:21:33.427Z,98105.69
2022-11-21T00:24:00.616Z,98101.75
2022-11-21T00:26:27.849Z,98103.75
2022-11-21T00:29:20.956Z,98097.81
2022-11-21T00:31:48.417Z,98092.72
2022-11-21T00:34:16.539Z,98076.13
2022-11-21T00:36:43.749Z,98079.13
2022-11-21T00:39:11.087Z,98075.53
2022-11-21T00:41:38.325Z,98065.50
2022-11-21T00:44:05.650Z,98058.59
2022-11-21T00:46:32.793Z,98059.00
2022-11-21T00:49:00.117Z,98054.56
2022-11-21T00:51:27.465Z,98058.81
2022-11-21T00:53:54.616Z,98047.72
2022-11-21T00:56:21.982Z,98046.59
2022-11-21T00:58:49.149Z,98044.47
2022-11-21T01:01:17.050Z,98051.94
2022-11-21T01:03:46.140Z,98053.03
2022-11-21T01:06:16.067Z,98038.72
2022-11-21T01:08:45.589Z,98038.56
2022-11-21T01:11:20.410Z,98044.38
2022-11-21T01:13:49.078Z,98044.06
2022-11-21T01:16:22.546Z,98034.16
2022-11-21T01:18:50.179Z,98039.72
2022-11-21T01:21:42.624Z,98036.88
2022-11-21T01:24:12.563Z,98039.13
2022-11-21T01:26:40.226Z,98034.03
2022-11-21T01:29:09.050Z,98033.66
2022-11-21T01:31:36.677Z,98027.47
2022-11-21T01:34:03.899Z,98031.78
2022-11-21T01:36:34.134Z,98039.13
2022-11-21T01:39:06.333Z,98037.38
2022-11-21T01:41:44.354Z,98014.16
2022-11-21T01:44:46.925Z,98021.78
2022-11-21T01:47:14.043Z,98019.50
2022-11-21T01:49:42.231Z,98022.72
2022-11-21T01:52:24.741Z,98015.34
2022-11-21T01:54:58.190Z,98010.44
2022-11-21T01:57:44.837Z,98002.88
2022-11-21T02:00:27.674Z,98008.09
2022-11-21T02:03:03.535Z,97998.13
2022-11-21T02:05:35.695Z,97995.53
2022-11-21T02:08:12.497Z,97988.16
2022-11-21T02:10:48.717Z,97987.63
2022-11-21T02:13:16.745Z,97985.13
2022-11-21T02:15:44.186Z,97984.13
2022-11-21T02:18:11.303Z,97985.22
2022-11-21T02:20:45.920Z,97989.31
2022-11-21T02:23:31.917Z,97983.03
2022-11-21T02:25:59.727Z,97988.13
2022-11-21T02:28:27.385Z,97983.94
2022-11-21T02:30:54.530Z,97987.28
2022-11-21T02:33:21.948Z,97988.81
2022-11-21T02:36:01.867Z,97988.56
2022-11-21T02:38:38.865Z,97991.09
2022-11-21T02:41:26.819Z,97980.28
2022-11-21T02:44:18.683Z,97984.38
2022-11-21T02:46:53.260Z,97984.03
2022-11-21T02:49:55.530Z,97983.63
2022-11-21T02:52:22.956Z,97983.97
2022-11-21T02:54:50.109Z,97976.91
2022-11-21T02:57:17.216Z,97974.81
2022-11-21T02:59:44.432Z,97973.56
2022-11-21T03:02:11.731Z,97970.66
2022-11-21T03:04:38.926Z,97968.91
2022-11-21T03:07:06.139Z,97965.91
2022-11-21T03:09:33.423Z,97964.78
2022-11-21T03:12:05.769Z,97960.94
2022-11-21T03:14:34.617Z,97950.78
2022-11-21T03:17:02.774Z,97946.38
2022-11-21T03:19:30.871Z,97949.78
2022-11-21T03:21:58.006Z,97953.16
2022-11-21T03:24:25.381Z,97950.63
2022-11-21T03:26:52.802Z,97954.34
2022-11-21T03:29:19.947Z,97939.84
2022-11-21T03:31:47.165Z,97945.00
2022-11-21T03:34:14.362Z,97939.03
2022-11-21T03:36:41.598Z,97949.56
2022-11-21T03:39:09.480Z,97951.41
2022-11-21T03:41:36.728Z,97957.25
2022-11-21T03:44:09.781Z,97954.38
2022-11-21T03:46:42.483Z,97955.25
2022-11-21T03:49:23.630Z,97951.97
2022-11-21T03:51:50.772Z,97951.28
2022-11-21T03:54:17.939Z,97947.84
2022-11-21T03:56:45.072Z,97944.28
2022-11-21T03:59:12.244Z,97944.09
2022-11-21T04:01:39.397Z,97941.41
2022-11-21T04:04:06.700Z,97954.47
2022-11-21T04:06:34.123Z,97941.44
2022-11-21T04:09:01.360Z,97938.38
2022-11-21T04:11:28.841Z,97926.50
2022-11-21T04:13:56.527Z,97936.78
2022-11-21T04:16:23.700Z,97937.69
2022-11-21T04:18:58.085Z,97938.53
2022-11-21T04:21:25.624Z,97939.75
2022-11-21T04:23:53.452Z,97932.25
2022-11-21T04:26:21.141Z,97935.13
2022-11-21T04:28:48.731Z,97931.91
2022-11-21T04:31:16.457Z,97929.63
2022-11-21T04:33:43.639Z,97922.47
2022-11-21T04:36:10.934Z,97933.56
2022-11-21T04:38:38.147Z,97934.72
2022-11-21T04:41:11.990Z,97928.13
2022-11-21T04:43:39.445Z,97935.97
2022-11-21T04:46:06.576Z,97936.22
2022-11-21T04:48:33.742Z,97938.88
2022-11-21T04:51:00.960Z,97939.34
2022-11-21T04:53:41.541Z,97938.69
2022-11-21T04:56:22.590Z,97931.34
2022-11-21T04:59:10.034Z,97932.16
2022-11-21T05:01:50.087Z,97915.97
2022-11-21T05:04:37.696Z,97920.69
2022-11-21T05:07:06.092Z,97938.22
2022-11-21T05:09:38.302Z,97937.03
2022-11-21T05:12:32.382Z,97933.72
2022-11-21T05:15:05.479Z,97927.69
2022-11-21T05:17:39.255Z,97934.63
2022-11-21T05:20:20.918Z,97933.84
2022-11-21T05:22:57.803Z,97930.31
2022-11-21T05:25:56.402Z,97922.72
2022-11-21T05:28:53.759Z,97928.59
2022-11-21T05:31:47.935Z,97932.25
2022-11-21T05:34:26.139Z,97935.13
2022-11-21T05:37:05.700Z,97930.44
2022-11-21T05:39:35.846Z,97935.31
2022-11-21T05:42:13.173Z,97931.84
2022-11-21T05:44:40.392Z,97943.56
2022-11-21T05:47:16.585Z,97948.00
2022-11-21T05:49:46.085Z,97943.84
2022-11-21T05:52:25.105Z,97951.28
2022-11-21T05:55:03.376Z,97954.31
2022-11-21T05:57:42.149Z,97950.88
2022-11-21T06:00:33.195Z,97951.06
2022-11-21T06:03:19.623Z,97950.16
2022-11-21T06:05:47.171Z,97963.22
2022-11-21T06:08:14.613Z,97957.75
2022-11-21T06:10:42.510Z,97963.53
2022-11-21T06:13:22.410Z,97961.22
2022-11-21T06:16:15.209Z,97951.47
2022-11-21T06:18:46.774Z,97958.00
2022-11-21T06:21:25.067Z,97957.75
2022-11-21T06:23:56.299Z,97959.25
2022-11-21T06:26:26.727Z,97955.88
2022-11-21T06:29:02.273Z,97962.31
2022-11-21T06:31:31.030Z,97965.00
2022-11-21T06:33:59.820Z,97970.03
2022-11-21T06:36:27.845Z,97960.94
2022-11-21T06:38:56.623Z,97971.75
2022-11-21T06:41:30.288Z,97969.78
2022-11-21T06:44:01.573Z,97971.03
2022-11-21T06:46:29.332Z,97969.81
2022-11-21T06:48:56.695Z,97968.09
2022-11-21T06:51:25.991Z,97972.00
2022-11-21T06:53:57.583Z,97970.06
2022-11-21T06:56:29.215Z,97972.38
2022-11-21T06:58:58.361Z,97978.34
2022-11-21T07:01:26.102Z,97978.00
2022-11-21T07:03:54.388Z,97967.94
2022-11-21T07:06:27.762Z,97972.13
2022-11-21T07:09:30.989Z,97979.94
2022-11-21T07:11:48.553Z,97975.50
2022-11-21T07:14:17.871Z,97974.34
2022-11-21T07:16:45.151Z,97975.75
2022-11-21T07:19:13.234Z,97977.44
2022-11-21T07:21:40.823Z,97979.56
2022-11-21T07:24:08.323Z,97971.63
2022-11-21T07:26:36.434Z,97971.75
2022-11-21T07:29:07.310Z,97975.75
2022-11-21T07:31:42.660Z,97970.56
2022-11-21T07:34:10.460Z,97973.56
2022-11-21T07:36:38.189Z,97976.41
2022-11-21T07:39:06.624Z,97980.25
2022-11-21T07:41:33.986Z,97978.31
2022-11-21T07:44:01.383Z,97979.06
2022-11-21T07:46:28.813Z,97974.41
2022-11-21T07:49:00.591Z,97976.88
2022-11-21T07:51:30.216Z,97968.09
2022-11-21T07:53:57.594Z,97977.56
2022-11-21T07:56:26.674Z,97969.84
2022-11-21T07:58:54.246Z,97970.94
2022-11-21T08:01:23.892Z,97969.28
2022-11-21T08:03:51.644Z,97972.72
2022-11-21T08:06:19.367Z,97970.69
2022-11-21T08:08:48.145Z,97970.09
2022-11-21T08:11:18.383Z,97972.47
2022-11-21T08:13:59.389Z,97978.69
2022-11-21T08:16:35.735Z,97978.19
2022-11-21T08:19:03.849Z,97982.78
2022-11-21T08:21:31.626Z,97978.75
2022-11-21T08:23:58.916Z,97975.41
2022-11-21T08:26:26.484Z,97968.31
2022-11-21T08:28:58.593Z,97959.81
2022-11-21T08:31:30.449Z,97969.03
2022-11-21T08:33:58.172Z,97963.28
2022-11-21T08:36:25.750Z,97971.84
2022-11-21T08:38:53.063Z,97958.19
2022-11-21T08:41:39.236Z,97961.91
2022-11-21T08:44:11.163Z,97965.19
2022-11-21T08:46:44.249Z,97960.13
2022-11-21T08:49:11.488Z,97959.16
2022-11-21T08:51:38.823Z,97947.13
2022-11-21T08:54:08.224Z,97948.38
2022-11-21T08:56:37.000Z,97951.47
2022-11-21T08:59:04.892Z,97947.44
2022-11-21T09:01:32.307Z,97948.16
2022-11-21T09:04:27.306Z,97953.81
2022-11-21T09:06:54.814Z,97952.09
2022-11-21T09:09:25.390Z,97956.75
2022-11-21T09:11:53.485Z,97950.53
2022-11-21T09:14:39.886Z,97950.69
2022-11-21T09:17:27.493Z,97956.00
2022-11-21T09:19:55.366Z,97940.53
2022-11-21T09:22:26.251Z,97942.34
2022-11-21T09:24:54.009Z,97944.16
2022-11-21T09:27:23.113Z,97944.19
2022-11-21T09:29:56.147Z,97947.25
2022-11-21T09:32:24.662Z,97948.63
2022-11-21T09:34:52.099Z,97941.34
2022-11-21T09:37:21.621Z,97939.63
2022-11-21T09:39:49.064Z,97940.75
2022-11-21T09:42:28.673Z,97952.56
2022-11-21T09:45:33.131Z,97948.41
2022-11-21T09:48:12.974Z,97950.47
2022-11-21T09:50:54.323Z,97960.78
2022-11-21T09:53:31.437Z,97945.72
2022-11-21T09:56:07.894Z,97938.38
2022-11-21T09:59:07.237Z,97931.91
2022-11-21T10:01:36.510Z,97913.50
2022-11-21T10:04:13.297Z,97910.38
2022-11-21T10:07:20.016Z,97906.44
2022-11-21T10:10:29.073Z,97890.03
2022-11-21T10:13:48.886Z,97891.13
2022-11-21T10:17:15.810Z,97881.19
2022-11-21T10:20:08.556Z,97877.97
2022-11-21T10:23:25.047Z,97876.28
2022-11-21T10:26:19.862Z,97865.50
2022-11-21T10:29:02.505Z,97862.56
2022-11-21T10:31:38.919Z,97861.25
2022-11-21T10:34:24.072Z,97850.84
2022-11-21T10:37:06.487Z,97832.84
2022-11-21T10:39:51.071Z,97827.50
2022-11-21T10:42:51.979Z,97831.63
2022-11-21T10:45:20.160Z,97831.66
2022-11-21T10:47:53.617Z,97828.13
2022-11-21T10:51:18.498Z,97826.00
2022-11-21T10:54:07.870Z,97822.50
2022-11-21T10:56:37.316Z,97808.78
2022-11-21T10:59:31.426Z,97799.78
2022-11-21T11:02:24.647Z,97792.78
2022-11-21T11:05:24.885Z,97781.50
2022-11-21T11:08:13.506Z,97785.50
2022-11-21T11:11:05.237Z,97782.31
2022-11-21T11:13:50.491Z,97774.59
2022-11-21T11:16:22.183Z,97773.53
2022-11-21T11:19:14.700Z,97757.09
2022-11-21T11:21:45.270Z,97747.00
2022-11-21T11:24:12.434Z,97745.84
2022-11-21T11:26:49.135Z,97736.56
2022-11-21T11:29:35.114Z,97740.31
2022-11-21T11:32:21.972Z,97721.75
2022-11-21T11:35:07.377Z,97729.88
2022-11-21T11:37:43.859Z,97717.53
2022-11-21T11:40:38.450Z,97710.34
2022-11-21T11:43:55.541Z,97707.34
2022-11-21T11:47:05.493Z,97709.88
2022-11-21T11:50:13.146Z,97707.88
2022-11-21T11:53:17.230Z,97705.41
2022-11-21T11:56:17.729Z,97696.50
2022-11-21T11:59:24.216Z,97701.09
2022-11-21T12:02:11.604Z,97690.41
2022-11-21T12:04:55.687Z,97684.78
2022-11-21T12:08:33.249Z,97683.56
2022-11-21T12:10:33.753Z,97672.53
2022-11-21T12:13:14.285Z,97669.19
2022-11-21T12:15:51.002Z,97674.13
2022-11-21T12:18:24.673Z,97674.19
2022-11-21T12:21:18.595Z,97663.72
2022-11-21T12:23:54.282Z,97648.31
2022-11-21T12:27:29.245Z,97643.34
2022-11-21T12:30:30.902Z,97641.25
2022-11-21T12:33:33.796Z,97631.59
2022-11-21T12:36:31.748Z,97628.53
2022-11-21T12:39:46.146Z,97615.38
2022-11-21T12:42:50.798Z,97606.06
2022-11-21T12:45:37.988Z,97608.34
2022-11-21T12:48:32.947Z,97598.63
2022-11-21T12:52:16.442Z,97587.63
2022-11-21T12:55:36.343Z,97586.09
2022-11-21T12:58:35.127Z,97572.50
2022-11-21T13:01:43.264Z,97571.03
2022-11-21T13:04:30.970Z,97552.19
2022-11-21T13:06:59.683Z,97545.56
2022-11-21T13:09:29.332Z,97545.56
2022-11-21T13:12:48.065Z,97529.53
2022-11-21T13:16:00.558Z,97520.81
2022-11-21T13:18:43.025Z,97518.75
2022-11-21T13:21:47.790Z,97515.06
2022-11-21T13:24:47.466Z,97508.31
2022-11-21T13:27:39.068Z,97516.41
2022-11-21T13:30:10.373Z,97515.84
2022-11-21T13:32:55.598Z,97509.03
2022-11-21T13:35:22.665Z,97490.44
2022-11-21T13:37:49.860Z,97503.22
2022-11-21T13:40:32.017Z,97493.59
2022-11-21T13:43:31.478Z,97485.78
2022-11-21T13:45:57.652Z,97482.25
2022-11-21T13:48:31.240Z,97490.00
2022-11-21T13:51:53.819Z,97487.16
2022-11-21T13:54:59.784Z,97474.22
2022-11-21T13:58:15.565Z,97466.13
2022-11-21T14:01:46.330Z,97460.13
2022-11-21T14:04:38.168Z,97459.56
2022-11-21T14:07:30.976Z,97451.06
2022-11-21T14:10:03.677Z,97444.91
2022-11-21T14:12:44.679Z,97438.69
2022-11-21T14:15:31.451Z,97442.91
2022-11-21T14:18:02.252Z,97436.75
2022-11-21T14:20:47.343Z,97432.03
2022-11-21T14:23:21.376Z,97429.47
2022-11-21T14:26:01.552Z,97429.94
2022-11-21T14:28:34.109Z,97431.38
2022-11-21T14:31:07.605Z,97424.44
2022-11-21T14:33:39.012Z,97427.72
2022-11-21T14:36:21.302Z,97429.34
2022-11-21T14:39:36.138Z,97420.19
2022-11-21T14:41:54.771Z,97407.44
2022-11-21T14:44:24.309Z,97410.53
2022-11-21T14:47:26.153Z,97406.31
2022-11-21T14:50:00.860Z,97395.44
2022-11-21T14:52:33.071Z,97395.41
2022-11-21T14:57:56.851Z,97387.84
2022-11-21T15:03:23.357Z,97373.09
2022-11-21T15:06:06.216Z,97358.56
2022-11-21T15:09:39.463Z,97348.72
2022-11-21T15:11:47.813Z,97336.03
2022-11-21T15:14:36.438Z,97324.56
2022-11-21T15:17:12.363Z,97320.69
2022-11-21T15:19:43.488Z,97308.78
2022-11-21T15:22:37.886Z,97302.66
2022-11-21T15:25:16.958Z,97293.91
2022-11-21T15:27:51.354Z,97280.22
2022-11-21T15:30:18.846Z,97276.47
2022-11-21T15:33:15.550Z,97271.41
2022-11-21T15:35:58.009Z,97268.63
2022-11-21T15:38:28.240Z,97257.06
2022-11-21T15:41:10.268Z,97249.50
2022-11-21T15:43:42.191Z,97243.59
2022-11-21T15:46:19.289Z,97233.25
2022-11-21T15:48:53.506Z,97222.09
2022-11-21T15:54:22.407Z,97216.69
2022-11-21T15:56:50.051Z,97197.91
2022-11-21T15:57:13.576Z,97217.00
2022-11-21T15:59:19.634Z,97199.94
2022-11-21T16:01:47.043Z,97191.16
2022-11-21T16:04:20.983Z,97186.75
2022-11-21T16:06:52.090Z,97184.56
2022-11-21T16:09:21.875Z,97184.31
2022-11-21T16:11:49.416Z,97200.13
2022-11-21T16:14:18.488Z,97176.84
2022-11-21T16:16:47.461Z,97186.78
2022-11-21T16:19:16.267Z,97168.22
2022-11-21T16:27:02.380Z,97168.81
2022-11-21T16:29:29.983Z,97160.81
2022-11-21T16:31:57.554Z,97153.66
2022-11-21T16:34:30.099Z,97150.59
2022-11-21T16:36:57.389Z,97139.25
2022-11-21T16:39:24.656Z,97127.34
2022-11-21T16:41:51.887Z,97126.75
2022-11-21T16:44:19.292Z,97122.34
2022-11-21T16:46:49.039Z,97107.13
2022-11-21T16:49:16.604Z,97111.28
2022-11-21T16:51:43.932Z,97119.34
2022-11-21T16:54:11.316Z,97109.63
2022-11-21T16:56:38.910Z,97114.63
2022-11-21T16:59:06.577Z,97117.97
2022-11-21T17:01:34.390Z,97124.84
2022-11-21T17:04:01.959Z,97117.59
2022-11-21T17:06:31.189Z,97116.78
2022-11-21T17:09:02.103Z,97106.19
2022-11-21T17:11:31.864Z,97109.97
2022-11-21T17:14:06.545Z,97089.16
2022-11-21T17:16:35.772Z,97088.00
2022-11-21T17:19:04.914Z,97097.41
2022-11-21T17:21:34.036Z,97101.81
2022-11-21T17:24:03.856Z,97092.41
2022-11-21T17:26:48.617Z,97078.03
2022-11-21T17:29:17.210Z,97077.19
2022-11-21T17:31:44.547Z,97077.78
2022-11-21T17:34:11.790Z,97065.78
2022-11-21T17:36:39.084Z,97067.13
2022-11-21T17:39:06.318Z,97065.78
2022-11-21T17:41:33.600Z,97086.22
2022-11-21T17:44:01.582Z,97079.69
2022-11-21T17:46:28.874Z,97060.00
2022-11-21T17:48:58.965Z,97057.28
2022-11-21T17:51:33.504Z,97031.25
2022-11-21T17:54:02.188Z,97020.56
2022-11-21T17:56:33.868Z,97026.66
2022-11-21T17:59:21.800Z,97028.56
2022-11-21T18:03:00.881Z,97039.13
2022-11-21T18:05:51.490Z,97045.44
2022-11-21T18:08:19.361Z,97042.06
2022-11-21T18:10:59.029Z,97041.56
2022-11-21T18:13:42.558Z,97025.56
2022-11-21T18:17:08.721Z,97036.00
2022-11-21T18:20:09.431Z,97026.41
2022-11-21T18:22:52.116Z,97015.66
2022-11-21T18:25:25.946Z,97002.38
2022-11-21T18:28:08.548Z,97012.03
2022-11-21T18:34:11.248Z,96997.41
2022-11-21T18:36:38.771Z,97001.25
2022-11-21T18:39:14.157Z,96993.25
2022-11-21T18:41:44.355Z,97004.59
2022-11-21T18:44:26.816Z,96994.66
2022-11-21T18:47:19.281Z,97002.66
2022-11-21T18:50:14.575Z,97004.59
2022-11-21T18:52:46.978Z,97008.16
2022-11-21T18:55:16.367Z,97003.22
2022-11-21T18:57:46.987Z,96994.06
2022-11-21T19:00:20.636Z,96997.13
2022-11-21T19:03:01.942Z,96995.72
2022-11-21T19:05:38.062Z,96989.13
2022-11-21T19:08:22.979Z,96981.94
2022-11-21T19:11:33.788Z,96984.41
2022-11-21T19:14:07.024Z,96976.06
2022-11-21T19:16:58.775Z,96971.66
2022-11-21T19:19:42.017Z,96978.06
2022-11-21T19:22:15.251Z,96969.19
2022-11-21T19:25:02.581Z,96971.94
2022-11-21T19:27:35.593Z,96969.19
2022-11-21T19:30:13.309Z,96975.84
2022-11-21T19:32:59.385Z,96968.66
2022-11-21T19:35:26.751Z,96951.81
2022-11-21T19:37:56.566Z,96957.91
2022-11-21T19:40:49.351Z,96957.63
2022-11-21T19:43:16.614Z,96955.94
2022-11-21T19:46:05.369Z,96948.22
2022-11-21T19:48:44.368Z,96946.28
2022-11-21T19:51:15.019Z,96951.00
2022-11-21T19:53:52.181Z,96940.47
2022-11-21T19:56:25.602Z,96940.19
2022-11-21T19:59:08.762Z,96932.19
2022-11-21T20:01:52.630Z,96931.38
2022-11-21T20:04:39.643Z,96936.88
2022-11-21T20:07:24.209Z,96931.56
2022-11-21T20:10:06.228Z,96921.56
2022-11-21T20:12:44.962Z,96925.44
2022-11-21T20:15:26.164Z,96922.75
2022-11-21T20:17:53.957Z,96915.25
2022-11-21T20:20:34.159Z,96927.09
2022-11-21T20:23:10.293Z,96921.03
2022-11-21T20:25:37.639Z,96930.22
2022-11-21T20:28:10.251Z,96934.31
2022-11-21T20:30:38.870Z,96936.75
2022-11-21T20:33:11.104Z,96940.72
2022-11-21T20:35:39.799Z,96926.63
2022-11-21T20:38:07.053Z,96938.81
2022-11-21T20:40:34.437Z,96939.34
2022-11-21T20:43:06.614Z,96951.97
2022-11-21T20:46:07.977Z,96949.78
2022-11-21T20:48:21.608Z,96960.25
2022-11-21T20:53:52.480Z,96966.31
2022-11-21T20:56:21.487Z,96959.72
2022-11-21T20:58:48.885Z,96950.88
2022-11-21T21:01:20.790Z,96948.13
2022-11-21T21:03:48.530Z,96946.13
2022-11-21T21:06:18.668Z,96936.59
2022-11-21T21:08:52.464Z,96939.03
2022-11-21T21:11:50.494Z,96939.88
2022-11-21T21:14:13.282Z,96941.84
2022-11-21T21:16:41.585Z,96945.19
2022-11-21T21:19:08.729Z,96930.31
2022-11-21T21:21:41.357Z,96922.63
2022-11-21T21:24:11.503Z,96929.22
2022-11-21T21:26:44.308Z,96920.69
2022-11-21T21:29:16.828Z,96911.34
2022-11-21T21:31:50.514Z,96905.50
2022-11-21T21:34:21.252Z,96923.00
2022-11-21T21:36:52.391Z,96928.53
2022-11-21T21:39:19.715Z,96903.97
2022-11-21T21:41:49.985Z,96915.06
2022-11-21T21:44:17.259Z,96906.72
2022-11-21T21:46:44.972Z,96919.06
2022-11-21T21:49:13.114Z,96901.06
2022-11-21T21:51:40.590Z,96900.19
2022-11-21T21:54:17.054Z,96895.34
2022-11-21T21:56:46.722Z,96913.28
2022-11-21T21:59:15.095Z,96906.47
2022-11-21T22:01:42.984Z,96903.53
2022-11-21T22:04:12.631Z,96913.94
2022-11-21T22:06:40.506Z,96910.66
2022-11-21T22:09:08.280Z,96911.78
2022-11-21T22:11:38.583Z,96916.34
2022-11-21T22:14:15.852Z,96916.81
2022-11-21T22:16:46.457Z,96912.47
2022-11-21T22:19:14.023Z,96906.91
2022-11-21T22:21:41.297Z,96923.59
2022-11-21T22:24:31.558Z,96925.66
2022-11-21T22:26:59.124Z,96921.19
2022-11-21T22:29:26.571Z,96920.06
2022-11-21T22:31:53.961Z,96934.19
2022-11-21T22:34:22.072Z,96931.88
2022-11-21T22:36:49.699Z,96933.84
2022-11-21T22:39:18.181Z,96933.88
2022-11-21T22:41:45.770Z,96935.66
2022-11-21T22:44:13.312Z,96929.44
2022-11-21T22:46:40.625Z,96932.88
2022-11-21T22:49:08.383Z,96919.47
2022-11-21T22:51:35.527Z,96918.09
2022-11-21T22:54:02.970Z,96927.28
2022-11-21T22:56:30.492Z,96925.47
2022-11-21T22:58:57.759Z,96924.41
2022-11-21T23:01:26.747Z,96927.22
2022-11-21T23:03:55.970Z,96926.41
2022-11-21T23:06:26.653Z,96917.13
2022-11-21T23:09:18.759Z,96921.50
2022-11-21T23:11:45.967Z,96920.41
2022-11-21T23:14:13.552Z,96922.34
2022-11-21T23:16:41.033Z,96914.53
2022-11-21T23:19:08.405Z,96910.69
2022-11-21T23:21:35.645Z,96902.13
2022-11-21T23:24:04.160Z,96900.28
2022-11-21T23:26:31.440Z,96894.88
2022-11-21T23:29:01.311Z,96881.38
2022-11-21T23:31:33.493Z,96870.03
2022-11-21T23:34:00.638Z,96848.00
2022-11-21T23:36:27.825Z,96844.16
2022-11-21T23:38:55.023Z,96853.03
2022-11-21T23:41:22.298Z,96869.31
2022-11-21T23:43:52.159Z,96869.84
2022-11-21T23:46:19.321Z,96872.03
2022-11-21T23:48:49.444Z,96856.53
2022-11-21T23:51:16.696Z,96864.63
2022-11-21T23:53:43.874Z,96851.28
2022-11-21T23:56:11.129Z,96878.69
2022-11-21T23:58:38.338Z,96882.81
